createdAt,value
2023-01-13T00:00:48.060Z,0.70
2023-01-13T00:03:14.574Z,0.90
2023-01-13T00:05:41.116Z,0.87
2023-01-13T00:08:07.607Z,1.00
2023-01-13T00:10:35.090Z,1.00
2023-01-13T00:13:04.018Z,2.00
2023-01-13T00:15:31.364Z,1.63
2023-01-13T00:17:57.864Z,1.77
2023-01-13T00:20:24.413Z,2.23
2023-01-13T00:22:50.925Z,1.63
2023-01-13T00:25:17.605Z,1.57
2023-01-13T00:27:44.130Z,1.87
2023-01-13T00:30:11.280Z,1.60
2023-01-13T00:32:38.263Z,1.90
2023-01-13T00:35:05.270Z,2.30
2023-01-13T00:37:31.780Z,2.03
2023-01-13T00:39:58.272Z,2.00
2023-01-13T00:42:43.204Z,2.10
2023-01-13T00:45:10.087Z,2.60
2023-01-13T00:47:36.621Z,1.70
2023-01-13T00:50:03.251Z,1.80
2023-01-13T00:52:32.447Z,2.17
2023-01-13T00:54:59.006Z,1.70
2023-01-13T00:57:25.508Z,2.27
2023-01-13T00:59:52.004Z,1.80
2023-01-13T01:02:18.605Z,2.23
2023-01-13T01:04:45.196Z,1.97
2023-01-13T01:07:11.704Z,2.10
2023-01-13T01:09:39.525Z,2.50
2023-01-13T01:12:06.193Z,1.73
2023-01-13T01:14:32.759Z,1.90
2023-01-13T01:16:59.344Z,2.07
2023-01-13T01:19:25.856Z,2.00
2023-01-13T01:21:52.431Z,2.07
2023-01-13T01:24:19.037Z,1.87
2023-01-13T01:26:45.636Z,1.73
2023-01-13T01:29:15.203Z,1.13
2023-01-13T01:31:42.090Z,1.63
2023-01-13T01:34:08.844Z,2.07
2023-01-13T01:36:36.648Z,1.90
2023-01-13T01:39:04.129Z,2.43
2023-01-13T01:41:32.553Z,1.93
2023-01-13T01:44:01.658Z,1.77
2023-01-13T01:46:43.750Z,1.97
2023-01-13T01:49:25.164Z,1.43
2023-01-13T01:52:02.514Z,2.37
2023-01-13T01:54:37.576Z,2.47
2023-01-13T01:57:04.759Z,2.17
2023-01-13T01:59:35.047Z,1.40
2023-01-13T02:02:02.473Z,1.87
2023-01-13T02:04:39.939Z,2.13
2023-01-13T02:07:06.825Z,2.20
2023-01-13T02:09:35.115Z,2.13
2023-01-13T02:12:20.001Z,2.50
2023-01-13T02:14:46.973Z,2.33
2023-01-13T02:17:36.892Z,2.60
2023-01-13T02:20:45.792Z,2.10
2023-01-13T02:23:57.530Z,2.43
2023-01-13T02:27:06.167Z,1.70
2023-01-13T02:30:19.853Z,3.00
2023-01-13T02:33:13.873Z,2.47
2023-01-13T02:35:54.031Z,2.73
2023-01-13T02:38:28.887Z,1.97
2023-01-13T02:41:26.022Z,2.30
2023-01-13T02:44:07.142Z,2.60
2023-01-13T02:46:39.489Z,2.70
2023-01-13T02:49:10.829Z,2.40
2023-01-13T02:51:40.707Z,2.20
2023-01-13T02:54:15.535Z,2.03
2023-01-13T02:56:47.320Z,2.27
2023-01-13T02:59:14.246Z,2.80
2023-01-13T03:01:42.411Z,3.20
2023-01-13T03:04:14.127Z,2.90
2023-01-13T03:07:01.586Z,2.33
2023-01-13T03:09:36.483Z,3.53
2023-01-13T03:12:38.036Z,2.60
2023-01-13T03:15:17.142Z,2.37
2023-01-13T03:18:04.272Z,3.13
2023-01-13T03:20:37.319Z,3.33
2023-01-13T03:23:28.501Z,3.33
2023-01-13T03:26:29.049Z,2.30
2023-01-13T03:29:13.622Z,2.83
2023-01-13T03:31:46.693Z,3.13
2023-01-13T03:34:17.422Z,2.90
2023-01-13T03:36:47.104Z,3.23
2023-01-13T03:39:19.820Z,2.70
2023-01-13T03:41:53.224Z,3.03
2023-01-13T03:44:32.790Z,3.33
2023-01-13T03:47:22.164Z,3.20
2023-01-13T03:50:11.264Z,2.57
2023-01-13T03:52:43.556Z,3.77
2023-01-13T03:55:18.568Z,3.97
2023-01-13T03:57:52.644Z,3.47
2023-01-13T04:00:21.262Z,2.43
2023-01-13T04:02:56.528Z,2.60
2023-01-13T04:05:23.189Z,1.70
2023-01-13T04:08:20.795Z,1.80
2023-01-13T04:10:59.428Z,3.03
2023-01-13T04:13:30.130Z,2.40
2023-01-13T04:15:56.653Z,3.13
2023-01-13T04:18:30.707Z,2.57
2023-01-13T04:21:00.421Z,2.00
2023-01-13T04:23:28.037Z,2.00
2023-01-13T04:25:55.301Z,2.10
2023-01-13T04:28:22.626Z,1.83
2023-01-13T04:30:49.497Z,1.80
2023-01-13T04:33:17.370Z,2.20
2023-01-13T04:35:44.572Z,1.53
2023-01-13T04:38:16.420Z,1.83
2023-01-13T04:40:43.112Z,1.80
2023-01-13T04:43:10.004Z,1.43
2023-01-13T04:45:36.738Z,1.60
2023-01-13T04:48:03.503Z,2.03
2023-01-13T04:50:29.890Z,2.17
2023-01-13T04:52:56.517Z,2.13
2023-01-13T04:55:24.140Z,1.83
2023-01-13T04:57:50.559Z,2.47
2023-01-13T05:00:19.563Z,1.50
2023-01-13T05:02:46.083Z,2.03
2023-01-13T05:05:12.452Z,2.37
2023-01-13T05:07:38.783Z,1.90
2023-01-13T05:10:05.656Z,2.70
2023-01-13T05:12:50.849Z,2.10
2023-01-13T05:15:36.191Z,2.33
2023-01-13T05:18:03.631Z,2.10
2023-01-13T05:20:29.982Z,2.60
2023-01-13T05:23:14.869Z,2.27
2023-01-13T05:25:44.375Z,2.47
2023-01-13T05:28:11.590Z,3.33
2023-01-13T05:30:43.554Z,2.77
2023-01-13T05:33:16.072Z,3.57
2023-01-13T05:35:44.193Z,3.20
2023-01-13T05:38:11.948Z,3.50
2023-01-13T05:40:59.551Z,3.50
2023-01-13T05:43:26.547Z,2.93
2023-01-13T05:46:09.682Z,3.27
2023-01-13T05:48:38.720Z,2.97
2023-01-13T05:51:07.521Z,2.50
2023-01-13T05:53:34.374Z,2.57
2023-01-13T05:56:04.469Z,3.17
2023-01-13T05:58:31.177Z,4.23
2023-01-13T06:01:06.020Z,2.40
2023-01-13T06:03:32.906Z,2.87
2023-01-13T06:06:01.304Z,3.20
2023-01-13T06:08:28.101Z,3.10
2023-01-13T06:10:54.473Z,3.30
2023-01-13T06:13:20.862Z,3.33
2023-01-13T06:15:47.208Z,2.37
2023-01-13T06:18:13.740Z,3.27
2023-01-13T06:20:40.104Z,3.53
2023-01-13T06:23:09.625Z,4.03
2023-01-13T06:25:44.393Z,2.90
2023-01-13T06:28:10.735Z,2.33
2023-01-13T06:30:49.113Z,2.40
2023-01-13T06:33:20.503Z,2.47
2023-01-13T06:35:52.611Z,1.93
2023-01-13T06:38:21.493Z,2.53
2023-01-13T06:40:48.254Z,2.20
2023-01-13T06:43:16.387Z,1.90
2023-01-13T06:45:52.330Z,2.07
2023-01-13T06:48:23.378Z,3.07
2023-01-13T06:50:49.817Z,2.00
2023-01-13T06:53:16.190Z,2.23
2023-01-13T06:55:42.493Z,2.60
2023-01-13T06:58:08.866Z,2.77
2023-01-13T07:00:37.074Z,3.63
2023-01-13T07:03:08.622Z,2.97
2023-01-13T07:05:34.998Z,2.50
2023-01-13T07:08:01.454Z,2.50
2023-01-13T07:10:28.270Z,2.43
2023-01-13T07:13:13.222Z,2.77
2023-01-13T07:15:39.575Z,2.60
2023-01-13T07:18:06.006Z,3.33
2023-01-13T07:20:32.426Z,2.73
2023-01-13T07:22:58.916Z,2.87
2023-01-13T07:25:25.894Z,2.70
2023-01-13T07:27:52.323Z,3.43
2023-01-13T07:30:18.847Z,2.13
2023-01-13T07:32:45.282Z,2.57
2023-01-13T07:35:11.680Z,3.07
2023-01-13T07:37:39.367Z,3.03
2023-01-13T07:40:06.704Z,2.63
2023-01-13T07:42:51.471Z,2.83
2023-01-13T07:45:17.807Z,3.50
2023-01-13T07:47:44.143Z,2.93
2023-01-13T07:50:10.918Z,2.20
2023-01-13T07:52:37.245Z,2.83
2023-01-13T07:55:03.742Z,2.77
2023-01-13T07:57:30.085Z,2.57
2023-01-13T07:59:56.432Z,2.00
2023-01-13T08:02:23.150Z,2.33
2023-01-13T08:04:49.656Z,3.37
2023-01-13T08:07:16.050Z,2.77
2023-01-13T08:09:42.355Z,3.07
2023-01-13T08:12:27.283Z,3.10
2023-01-13T08:14:54.013Z,2.83
2023-01-13T08:17:20.681Z,2.10
2023-01-13T08:19:47.351Z,2.57
2023-01-13T08:22:13.687Z,3.20
2023-01-13T08:24:40.052Z,2.53
2023-01-13T08:27:06.388Z,3.43
2023-01-13T08:29:32.714Z,2.10
2023-01-13T08:31:59.227Z,4.37
2023-01-13T08:34:25.721Z,3.10
2023-01-13T08:36:52.093Z,3.13
2023-01-13T08:39:18.592Z,3.30
2023-01-13T08:41:58.189Z,3.00
2023-01-13T08:44:27.568Z,6.63
2023-01-13T08:46:54.852Z,2.50
2023-01-13T08:49:21.810Z,2.60
2023-01-13T08:51:48.582Z,2.07
2023-01-13T08:54:18.052Z,2.90
2023-01-13T08:56:45.680Z,3.20
2023-01-13T08:59:17.079Z,2.80
2023-01-13T09:01:44.406Z,2.80
2023-01-13T09:04:19.430Z,2.90
2023-01-13T09:06:47.392Z,2.10
2023-01-13T09:09:13.957Z,2.60
2023-01-13T09:12:01.694Z,3.60
2023-01-13T09:14:31.227Z,3.40
2023-01-13T09:16:58.601Z,3.63
2023-01-13T09:19:25.947Z,3.20
2023-01-13T09:21:52.636Z,2.60
2023-01-13T09:24:19.659Z,3.27
2023-01-13T09:26:46.100Z,3.23
2023-01-13T09:29:12.528Z,2.87
2023-01-13T09:31:38.934Z,2.93
2023-01-13T09:34:25.328Z,3.10
2023-01-13T09:36:51.682Z,3.13
2023-01-13T09:39:18.438Z,2.63
2023-01-13T09:42:10.739Z,2.90
2023-01-13T09:44:48.025Z,3.30
2023-01-13T09:47:30.513Z,3.97
2023-01-13T09:50:15.470Z,3.43
2023-01-13T09:52:43.056Z,2.83
2023-01-13T09:55:15.510Z,3.47
2023-01-13T09:57:42.044Z,3.50
2023-01-13T10:00:25.775Z,3.93
2023-01-13T10:03:19.286Z,3.33
2023-01-13T10:05:57.465Z,3.13
2023-01-13T10:08:32.518Z,3.33
2023-01-13T10:11:34.206Z,3.30
2023-01-13T10:14:15.615Z,3.43
2023-01-13T10:17:07.551Z,2.77
2023-01-13T10:19:55.789Z,3.60
2023-01-13T10:22:30.946Z,2.93
2023-01-13T10:25:03.453Z,3.77
2023-01-13T10:27:37.261Z,3.63
2023-01-13T10:30:17.815Z,3.53
2023-01-13T10:32:50.179Z,3.80
2023-01-13T10:35:16.688Z,3.87
2023-01-13T10:37:56.731Z,3.50
2023-01-13T10:40:23.158Z,2.90
2023-01-13T10:43:05.502Z,2.67
2023-01-13T10:45:31.843Z,3.47
2023-01-13T10:48:13.753Z,3.53
2023-01-13T10:50:40.583Z,3.37
2023-01-13T10:53:24.186Z,3.17
2023-01-13T10:56:04.271Z,3.67
2023-01-13T10:58:30.789Z,2.87
2023-01-13T11:01:03.046Z,3.37
2023-01-13T11:03:36.912Z,3.07
2023-01-13T11:06:03.603Z,4.23
2023-01-13T11:08:42.043Z,2.97
2023-01-13T11:11:26.930Z,3.33
2023-01-13T11:14:15.343Z,2.70
2023-01-13T11:16:53.089Z,2.80
2023-01-13T11:19:24.268Z,3.77
2023-01-13T11:22:01.471Z,3.90
2023-01-13T11:24:53.011Z,3.43
2023-01-13T11:27:52.522Z,3.63
2023-01-13T11:30:21.808Z,3.83
2023-01-13T11:33:09.890Z,3.60
2023-01-13T11:35:43.545Z,3.27
2023-01-13T11:38:35.961Z,4.37
2023-01-13T11:41:14.069Z,3.37
2023-01-13T11:43:51.575Z,2.97
2023-01-13T11:46:28.106Z,4.27
2023-01-13T11:48:56.629Z,4.00
2023-01-13T11:51:34.819Z,3.20
2023-01-13T11:54:38.777Z,3.40
2023-01-13T11:57:36.573Z,3.63
2023-01-13T12:01:07.748Z,4.37
2023-01-13T12:03:50.060Z,4.17
2023-01-13T12:07:07.294Z,3.43
2023-01-13T12:09:45.515Z,3.57
2023-01-13T12:12:27.749Z,3.87
2023-01-13T12:15:12.547Z,3.60
2023-01-13T12:18:19.143Z,3.23
2023-01-13T12:20:59.979Z,3.87
2023-01-13T12:23:34.376Z,3.50
2023-01-13T12:26:11.457Z,3.27
2023-01-13T12:28:44.596Z,2.97
2023-01-13T12:31:12.502Z,3.27
2023-01-13T12:34:00.651Z,3.13
2023-01-13T12:37:02.665Z,3.17
2023-01-13T12:39:43.697Z,3.30
2023-01-13T12:42:51.223Z,3.30
2023-01-13T12:45:26.950Z,3.77
2023-01-13T12:47:53.923Z,3.63
2023-01-13T12:50:26.176Z,3.53
2023-01-13T12:52:57.417Z,3.13
2023-01-13T12:55:36.147Z,3.57
2023-01-13T12:58:05.296Z,3.63
2023-01-13T13:00:52.032Z,2.90
2023-01-13T13:03:32.112Z,2.67
2023-01-13T13:06:20.454Z,3.70
2023-01-13T13:09:28.867Z,3.67
2023-01-13T13:11:57.896Z,3.20
2023-01-13T13:14:39.310Z,3.90
2023-01-13T13:17:28.595Z,3.77
2023-01-13T13:19:57.398Z,3.27
2023-01-13T13:22:26.741Z,3.83
2023-01-13T13:24:56.104Z,3.47
2023-01-13T13:27:28.338Z,4.20
2023-01-13T13:30:00.048Z,3.57
2023-01-13T13:33:00.146Z,3.53
2023-01-13T13:35:51.651Z,3.43
2023-01-13T13:39:08.469Z,4.03
2023-01-13T13:41:54.665Z,4.00
2023-01-13T13:44:58.676Z,3.93
2023-01-13T13:47:25.041Z,4.50
2023-01-13T13:49:54.324Z,3.57
2023-01-13T13:52:22.489Z,3.63
2023-01-13T13:54:51.843Z,3.73
2023-01-13T13:57:21.437Z,3.73
2023-01-13T13:59:57.403Z,3.80
2023-01-13T14:02:29.835Z,4.93
2023-01-13T14:05:23.101Z,4.07
2023-01-13T14:07:52.487Z,4.00
2023-01-13T14:10:27.942Z,4.83
2023-01-13T14:12:54.325Z,4.30
2023-01-13T14:15:35.520Z,3.77
2023-01-13T14:18:05.811Z,4.03
2023-01-13T14:20:34.361Z,4.30
2023-01-13T14:23:01.601Z,3.90
2023-01-13T14:25:32.320Z,4.00
2023-01-13T14:28:17.133Z,4.30
2023-01-13T14:30:44.242Z,4.33
2023-01-13T14:33:18.219Z,4.47
2023-01-13T14:36:23.629Z,4.13
2023-01-13T14:39:05.347Z,4.43
2023-01-13T14:41:43.846Z,4.73
2023-01-13T14:44:23.493Z,3.87
2023-01-13T14:46:50.734Z,5.07
2023-01-13T14:49:38.920Z,4.23
2023-01-13T14:52:13.349Z,4.80
2023-01-13T14:54:45.256Z,4.97
2023-01-13T14:57:27.339Z,3.73
2023-01-13T15:00:23.400Z,4.17
2023-01-13T15:02:53.225Z,4.60
2023-01-13T15:05:19.574Z,4.77
2023-01-13T15:08:12.169Z,4.87
2023-01-13T15:10:51.198Z,5.47
2023-01-13T15:13:29.431Z,4.80
2023-01-13T15:15:57.541Z,4.80
2023-01-13T15:18:23.990Z,5.20
2023-01-13T15:20:52.913Z,5.13
2023-01-13T15:23:20.104Z,5.00
2023-01-13T15:25:47.627Z,5.10
2023-01-13T15:28:16.194Z,6.53
2023-01-13T15:30:42.528Z,6.27
2023-01-13T15:33:11.540Z,6.63
2023-01-13T15:35:41.142Z,6.63
2023-01-13T15:38:16.655Z,6.30
2023-01-13T15:40:43.883Z,6.87
2023-01-13T15:43:32.963Z,6.37
2023-01-13T15:46:37.858Z,5.27
2023-01-13T15:49:34.719Z,7.03
2023-01-13T15:52:03.120Z,4.87
2023-01-13T15:54:29.789Z,4.67
2023-01-13T15:56:56.509Z,4.70
2023-01-13T15:59:26.514Z,6.20
2023-01-13T16:01:52.844Z,3.97
2023-01-13T16:04:19.220Z,6.23
2023-01-13T16:06:47.266Z,4.90
2023-01-13T16:09:14.608Z,5.60
2023-01-13T16:11:41.019Z,4.20
2023-01-13T16:14:07.491Z,3.93
2023-01-13T16:16:33.941Z,4.73
2023-01-13T16:19:00.315Z,4.10
2023-01-13T16:21:26.669Z,3.83
2023-01-13T16:23:53.080Z,4.63
2023-01-13T16:26:24.842Z,4.23
2023-01-13T16:28:53.368Z,4.70
2023-01-13T16:31:26.593Z,4.43
2023-01-13T16:33:53.548Z,3.97
2023-01-13T16:36:21.392Z,4.17
2023-01-13T16:38:49.057Z,4.03
2023-01-13T16:41:15.576Z,3.27
2023-01-13T16:43:42.107Z,3.93
2023-01-13T16:46:19.027Z,3.83
2023-01-13T16:48:46.099Z,4.57
2023-01-13T16:51:12.484Z,4.23
2023-01-13T16:53:39.035Z,3.67
2023-01-13T16:56:14.800Z,4.73
2023-01-13T16:58:41.201Z,3.93
2023-01-13T17:01:18.526Z,3.93
2023-01-13T17:03:48.891Z,4.07
2023-01-13T17:06:17.277Z,3.57
2023-01-13T17:08:43.584Z,3.70
2023-01-13T17:11:10.136Z,4.10
2023-01-13T17:13:36.543Z,3.63
2023-01-13T17:16:02.872Z,3.70
2023-01-13T17:18:32.097Z,3.97
2023-01-13T17:20:59.852Z,4.73
2023-01-13T17:23:27.371Z,3.53
2023-01-13T17:25:54.618Z,3.70
2023-01-13T17:28:21.084Z,2.70
2023-01-13T17:30:47.772Z,3.60
2023-01-13T17:33:14.133Z,3.10
2023-01-13T17:35:40.578Z,3.60
2023-01-13T17:38:06.894Z,3.77
2023-01-13T17:40:33.217Z,3.07
2023-01-13T17:42:59.533Z,3.27
2023-01-13T17:45:25.942Z,3.57
2023-01-13T17:47:57.714Z,3.60
2023-01-13T17:50:24.594Z,4.17
2023-01-13T17:52:50.925Z,3.40
2023-01-13T17:55:17.277Z,3.77
2023-01-13T17:57:43.608Z,4.80
2023-01-13T18:00:12.093Z,4.73
2023-01-13T18:02:41.386Z,4.13
2023-01-13T18:05:08.111Z,4.63
2023-01-13T18:07:34.416Z,4.60
2023-01-13T18:10:00.730Z,4.23
2023-01-13T18:12:27.054Z,4.53
2023-01-13T18:14:53.390Z,4.10
2023-01-13T18:17:19.783Z,3.60
2023-01-13T18:20:04.535Z,4.53
2023-01-13T18:22:49.373Z,4.77
2023-01-13T18:25:34.060Z,4.87
2023-01-13T18:28:03.683Z,3.30
2023-01-13T18:30:30.327Z,3.30
2023-01-13T18:32:57.357Z,3.50
2023-01-13T18:35:23.777Z,4.20
2023-01-13T18:37:50.129Z,4.07
2023-01-13T18:40:16.767Z,4.43
2023-01-13T18:42:52.003Z,3.97
2023-01-13T18:45:20.718Z,5.77
2023-01-13T18:47:47.071Z,4.23
2023-01-13T18:50:13.803Z,5.43
2023-01-13T18:52:41.225Z,4.60
2023-01-13T18:55:08.131Z,4.63
2023-01-13T18:57:38.979Z,5.70
2023-01-13T19:00:07.336Z,5.33
2023-01-13T19:02:34.473Z,6.00
2023-01-13T19:05:00.820Z,6.03
2023-01-13T19:07:29.053Z,5.80
2023-01-13T19:09:55.871Z,5.53
2023-01-13T19:12:26.168Z,5.53
2023-01-13T19:14:54.238Z,5.50
2023-01-13T19:17:22.095Z,5.13
2023-01-13T19:19:51.496Z,5.63
2023-01-13T19:22:23.272Z,4.43
2023-01-13T19:24:50.439Z,4.47
2023-01-13T19:27:18.462Z,4.10
2023-01-13T19:29:52.527Z,3.90
2023-01-13T19:32:22.475Z,4.17
2023-01-13T19:34:50.802Z,4.27
2023-01-13T19:37:17.683Z,3.83
2023-01-13T19:39:44.102Z,4.53
2023-01-13T19:42:32.210Z,4.87
2023-01-13T19:45:36.675Z,5.23
2023-01-13T19:48:04.770Z,4.17
2023-01-13T19:50:35.476Z,4.93
2023-01-13T19:53:01.814Z,4.63
2023-01-13T19:55:28.237Z,5.13
2023-01-13T19:57:54.619Z,3.93
2023-01-13T20:00:21.767Z,3.33
2023-01-13T20:02:49.927Z,3.60
2023-01-13T20:05:21.002Z,4.70
2023-01-13T20:07:48.837Z,4.07
2023-01-13T20:10:16.277Z,3.67
2023-01-13T20:12:42.755Z,4.03
2023-01-13T20:15:09.634Z,4.53
2023-01-13T20:17:36.047Z,3.70
2023-01-13T20:20:03.834Z,3.20
2023-01-13T20:22:35.203Z,3.70
2023-01-13T20:25:01.730Z,4.43
2023-01-13T20:27:28.333Z,3.73
2023-01-13T20:29:54.652Z,3.57
2023-01-13T20:32:21.022Z,4.07
2023-01-13T20:34:47.364Z,4.17
2023-01-13T20:37:13.746Z,4.47
2023-01-13T20:39:42.862Z,3.57
2023-01-13T20:42:27.844Z,3.20
2023-01-13T20:44:54.227Z,3.37
2023-01-13T20:47:20.590Z,4.10
2023-01-13T20:49:47.237Z,3.70
2023-01-13T20:52:14.486Z,4.30
2023-01-13T20:54:41.297Z,4.27
2023-01-13T20:57:10.108Z,4.00
2023-01-13T20:59:37.845Z,4.20
2023-01-13T21:02:06.445Z,4.60
2023-01-13T21:04:32.784Z,3.50
2023-01-13T21:06:59.136Z,4.33
2023-01-13T21:09:27.099Z,3.90
2023-01-13T21:12:12.530Z,3.90
2023-01-13T21:14:57.320Z,3.70
2023-01-13T21:17:42.018Z,5.17
2023-01-13T21:20:11.096Z,3.67
2023-01-13T21:22:38.808Z,4.60
2023-01-13T21:25:05.952Z,5.17
2023-01-13T21:27:32.863Z,4.57
2023-01-13T21:29:59.189Z,5.27
2023-01-13T21:32:25.550Z,4.93
2023-01-13T21:34:51.924Z,3.77
2023-01-13T21:37:18.557Z,4.57
2023-01-13T21:39:45.002Z,4.77
2023-01-13T21:42:33.700Z,4.73
2023-01-13T21:45:18.386Z,5.40
2023-01-13T21:47:50.514Z,4.27
2023-01-13T21:50:19.470Z,5.47
2023-01-13T21:52:47.824Z,4.50
2023-01-13T21:55:28.705Z,4.60
2023-01-13T21:58:21.382Z,5.17
2023-01-13T22:00:49.329Z,4.73
2023-01-13T22:03:18.126Z,4.47
2023-01-13T22:05:45.067Z,4.87
2023-01-13T22:08:12.548Z,5.23
2023-01-13T22:10:56.843Z,4.70
2023-01-13T22:13:41.780Z,4.93
2023-01-13T22:16:09.124Z,4.40
2023-01-13T22:18:35.501Z,4.17
2023-01-13T22:21:01.900Z,4.90
2023-01-13T22:23:28.470Z,3.90
2023-01-13T22:26:02.289Z,4.83
2023-01-13T22:28:33.996Z,4.80
2023-01-13T22:31:01.312Z,4.63
2023-01-13T22:33:27.736Z,5.43
2023-01-13T22:35:55.353Z,4.40
2023-01-13T22:38:21.936Z,4.20
2023-01-13T22:40:59.040Z,5.73
2023-01-13T22:43:26.477Z,4.90
2023-01-13T22:46:00.410Z,5.97
2023-01-13T22:48:27.452Z,4.63
2023-01-13T22:50:54.016Z,5.27
2023-01-13T22:53:20.943Z,4.97
2023-01-13T22:55:57.239Z,4.40
2023-01-13T22:58:24.305Z,4.47
2023-01-13T23:00:51.225Z,5.60
2023-01-13T23:03:18.417Z,5.13
2023-01-13T23:05:45.830Z,5.70
2023-01-13T23:08:12.754Z,5.93
2023-01-13T23:10:40.005Z,5.77
2023-01-13T23:13:06.861Z,6.30
2023-01-13T23:15:38.984Z,4.90
2023-01-13T23:18:05.572Z,4.63
2023-01-13T23:20:33.112Z,4.60
2023-01-13T23:22:59.491Z,5.33
2023-01-13T23:25:26.591Z,5.70
2023-01-13T23:27:53.260Z,4.67
2023-01-13T23:30:19.660Z,5.77
2023-01-13T23:32:46.089Z,5.80
2023-01-13T23:35:12.638Z,6.53
2023-01-13T23:37:38.953Z,4.93
2023-01-13T23:40:06.605Z,5.83
2023-01-13T23:42:32.964Z,5.23
2023-01-13T23:44:59.321Z,4.93
2023-01-13T23:47:25.674Z,6.23
2023-01-13T23:49:52.092Z,6.07
2023-01-13T23:52:18.452Z,7.03
2023-01-13T23:54:44.856Z,5.47
2023-01-13T23:57:11.403Z,4.83
2023-01-13T23:59:37.760Z,5.20
